Time,TemperatureF,DewpointF,PressureIn,WindDirection,WindDirectionDegrees,WindSpeedMPH,WindSpeedGustMPH,Humidity,HourlyPrecipIn,Conditions,Clouds,dailyrainin,SoftwareType,DateUTC
2013-11-22 00:00:00,21.0,10.7,30.56,NNE,22,5.0,11.0,64,0.00,,,-99.99,Weather View 32 v60,2013-11-22 06:00:00,
2013-11-22 00:05:00,21.0,10.7,30.56,NNE,22,5.0,11.0,64,0.00,,,-99.99,Weather View 32 v60,2013-11-22 06:05:00,
2013-11-22 00:10:00,21.0,10.7,30.56,NNE,22,5.0,11.0,64,0.00,,,-99.99,Weather View 32 v60,2013-11-22 06:10:00,
2013-11-22 00:15:00,21.0,10.7,30.56,NNE,22,5.0,11.0,64,0.00,,,-99.99,Weather View 32 v60,2013-11-22 06:15:00,
2013-11-22 00:20:00,21.0,11.1,30.56,NNE,22,4.0,11.0,65,0.00,,,-99.99,Weather View 32 v60,2013-11-22 06:20:00,
2013-11-22 00:25:00,21.0,11.1,30.56,NNE,22,3.0,11.0,65,0.00,,,-99.99,Weather View 32 v60,2013-11-22 06:25:00,
2013-11-22 00:30:00,21.0,11.1,30.57,NNE,22,7.0,11.0,65,0.00,,,-99.99,Weather View 32 v60,2013-11-22 06:30:00,
2013-11-22 00:35:00,21.0,11.4,30.57,NNE,22,3.0,11.0,66,0.00,,,-99.99,Weather View 32 v60,2013-11-22 06:35:00,
2013-11-22 00:40:00,21.0,11.4,30.57,NNE,22,5.0,11.0,66,0.00,,,-99.99,Weather View 32 v60,2013-11-22 06:40:00,
2013-11-22 00:45:00,21.0,11.4,30.57,NNE,22,3.0,11.0,66,0.00,,,-99.99,Weather View 32 v60,2013-11-22 06:45:00,
2013-11-22 00:50:00,21.0,11.4,30.57,NNE,22,2.0,11.0,66,0.00,,,-99.99,Weather View 32 v60,2013-11-22 06:50:00,
2013-11-22 00:55:00,21.0,11.8,30.57,NNE,22,2.0,11.0,67,0.00,,,-99.99,Weather View 32 v60,2013-11-22 06:55:00,
2013-11-22 01:00:00,21.0,11.8,30.58,NNE,22,3.0,11.0,67,0.00,,,-99.99,Weather View 32 v60,2013-11-22 07:00:00,
2013-11-22 01:05:00,20.0,10.8,30.58,NNE,22,3.0,10.0,67,0.00,,,-99.99,Weather View 32 v60,2013-11-22 07:05:00,
2013-11-22 01:10:00,20.0,10.8,30.58,NNE,22,5.0,10.0,67,0.00,,,-99.99,Weather View 32 v60,2013-11-22 07:10:00,
2013-11-22 01:15:00,20.0,10.8,30.58,NNE,22,3.0,10.0,67,0.00,,,-99.99,Weather View 32 v60,2013-11-22 07:15:00,
2013-11-22 01:20:00,20.0,11.1,30.59,NNE,22,4.0,10.0,68,0.00,,,-99.99,Weather View 32 v60,2013-11-22 07:20:00,
2013-11-22 01:25:00,20.0,11.1,30.58,NNE,22,5.0,10.0,68,0.00,,,-99.99,Weather View 32 v60,2013-11-22 07:25:00,
2013-11-22 01:30:00,20.0,11.1,30.58,NNE,22,3.0,10.0,68,0.00,,,-99.99,Weather View 32 v60,2013-11-22 07:30:00,
2013-11-22 01:35:00,20.0,11.1,30.58,NNE,22,5.0,9.0,68,0.00,,,-99.99,Weather View 32 v60,2013-11-22 07:35:00,
2013-11-22 01:40:00,20.0,11.1,30.58,NNE,22,5.0,9.0,68,0.00,,,-99.99,Weather View 32 v60,2013-11-22 07:40:00,
2013-11-22 01:45:00,20.0,11.1,30.58,NNE,22,5.0,8.0,68,0.00,,,-99.99,Weather View 32 v60,2013-11-22 07:45:00,
2013-11-22 01:50:00,20.0,11.1,30.58,NNE,22,3.0,8.0,68,0.00,,,-99.99,Weather View 32 v60,2013-11-22 07:50:00,
2013-11-22 01:55:00,20.0,11.1,30.58,NNE,22,3.0,8.0,68,0.00,,,-99.99,Weather View 32 v60,2013-11-22 07:55:00,
2013-11-22 02:00:00,20.0,11.1,30.58,NNE,22,3.0,8.0,68,0.00,,,-99.99,Weather View 32 v60,2013-11-22 08:00:00,
2013-11-22 02:05:00,20.0,11.1,30.58,NNE,22,5.0,8.0,68,0.00,,,-99.99,Weather View 32 v60,2013-11-22 08:05:00,
2013-11-22 02:10:00,19.0,10.2,30.58,NNE,22,3.0,8.0,68,0.00,,,-99.99,Weather View 32 v60,2013-11-22 08:10:00,
2013-11-22 02:15:00,19.0,10.5,30.58,NNE,22,6.0,8.0,69,0.00,,,-99.99,Weather View 32 v60,2013-11-22 08:15:00,
2013-11-22 02:20:00,19.0,10.5,30.58,NNE,22,2.0,9.0,69,0.00,,,-99.99,Weather View 32 v60,2013-11-22 08:20:00,
2013-11-22 02:25:00,19.0,10.5,30.58,NNE,22,5.0,9.0,69,0.00,,,-99.99,Weather View 32 v60,2013-11-22 08:25:00,
2013-11-22 02:30:00,19.0,10.5,30.58,NNE,22,6.0,9.0,69,0.00,,,-99.99,Weather View 32 v60,2013-11-22 08:30:00,
2013-11-22 02:35:00,19.0,10.5,30.58,NNE,22,6.0,9.0,69,0.00,,,-99.99,Weather View 32 v60,2013-11-22 08:35:00,
2013-11-22 02:40:00,19.0,10.5,30.58,NNE,22,2.0,9.0,69,0.00,,,-99.99,Weather View 32 v60,2013-11-22 08:40:00,
2013-11-22 02:45:00,19.0,10.5,30.57,NNE,22,3.0,9.0,69,0.00,,,-99.99,Weather View 32 v60,2013-11-22 08:45:00,
2013-11-22 02:50:00,19.0,10.8,30.57,NNE,22,2.0,9.0,70,0.00,,,-99.99,Weather View 32 v60,2013-11-22 08:50:00,
2013-11-22 02:55:00,19.0,10.8,30.58,NNE,22,3.0,9.0,70,0.00,,,-99.99,Weather View 32 v60,2013-11-22 08:55:00,
2013-11-22 03:00:00,18.0,9.9,30.58,NNE,22,3.0,9.0,70,0.00,,,-99.99,Weather View 32 v60,2013-11-22 09:00:00,
2013-11-22 03:05:00,18.0,9.9,30.58,NNE,22,3.0,9.0,70,0.00,,,-99.99,Weather View 32 v60,2013-11-22 09:05:00,
2013-11-22 03:10:00,18.0,9.9,30.58,NNE,22,4.0,9.0,70,0.00,,,-99.99,Weather View 32 v60,2013-11-22 09:10:00,
2013-11-22 03:15:00,18.0,10.2,30.58,NNE,22,3.0,9.0,71,0.00,,,-99.99,Weather View 32 v60,2013-11-22 09:15:00,
2013-11-22 03:20:00,17.0,9.2,30.58,NNE,22,1.0,9.0,71,0.00,,,-99.99,Weather View 32 v60,2013-11-22 09:20:00,
2013-11-22 03:25:00,17.0,9.2,30.59,NNE,22,2.0,9.0,71,0.00,,,-99.99,Weather View 32 v60,2013-11-22 09:25:00,
2013-11-22 03:30:00,17.0,9.2,30.58,NNE,22,1.0,9.0,71,0.00,,,-99.99,Weather View 32 v60,2013-11-22 09:30:00,
2013-11-22 03:35:00,17.0,9.2,30.58,NNE,22,1.0,9.0,71,0.00,,,-99.99,Weather View 32 v60,2013-11-22 09:35:00,
2013-11-22 03:40:00,17.0,9.2,30.58,NNE,22,1.0,8.0,71,0.00,,,-99.99,Weather View 32 v60,2013-11-22 09:40:00,
2013-11-22 03:50:00,16.0,8.6,30.58,NNE,22,0.0,8.0,72,0.00,,,-99.99,Weather View 32 v60,2013-11-22 09:50:00,
2013-11-22 03:55:00,16.0,8.6,30.58,NNE,22,1.0,8.0,72,0.00,,,-99.99,Weather View 32 v60,2013-11-22 09:55:00,
2013-11-22 04:00:00,16.0,8.6,30.58,NNE,22,0.0,6.0,72,0.00,,,-99.99,Weather View 32 v60,2013-11-22 10:00:00,
2013-11-22 04:05:00,16.0,8.6,30.58,NNE,22,1.0,6.0,72,0.00,,,-99.99,Weather View 32 v60,2013-11-22 10:05:00,
2013-11-22 04:17:00,18.0,10.2,30.58,NNE,22,3.0,9.0,71,0.00,,,-99.99,Weather View 32 v60,2013-11-22 10:17:00,
2013-11-22 04:20:00,15.0,7.9,30.59,NNE,22,0.0,5.0,73,0.00,,,-99.99,Weather View 32 v60,2013-11-22 10:20:00,
2013-11-22 04:25:00,15.0,7.9,30.58,NNE,22,0.0,5.0,73,0.00,,,-99.99,Weather View 32 v60,2013-11-22 10:25:00,
2013-11-22 04:35:00,14.0,6.9,30.58,NNE,22,0.0,3.0,73,0.00,,,-99.99,Weather View 32 v60,2013-11-22 10:35:00,
2013-11-22 04:40:00,14.0,6.9,30.58,NNE,22,0.0,3.0,73,0.00,,,-99.99,Weather View 32 v60,2013-11-22 10:40:00,
2013-11-22 04:45:00,16.0,8.6,30.58,NNE,22,1.0,8.0,72,0.00,,,-99.99,Weather View 32 v60,2013-11-22 10:45:00,
2013-11-22 04:50:00,14.0,6.9,30.59,NNE,22,0.0,2.0,73,0.00,,,-99.99,Weather View 32 v60,2013-11-22 10:50:00,
2013-11-22 05:05:00,13.0,6.0,30.59,NNE,22,0.0,2.0,73,0.00,,,-99.99,Weather View 32 v60,2013-11-22 11:05:00,
2013-11-22 05:10:00,15.0,7.6,30.58,NNE,22,0.0,5.0,72,0.00,,,-99.99,Weather View 32 v60,2013-11-22 11:10:00,
2013-11-22 05:15:00,15.0,7.9,30.58,NNE,22,0.0,5.0,73,0.00,,,-99.99,Weather View 32 v60,2013-11-22 11:15:00,
2013-11-22 05:20:00,12.0,5.3,30.59,NNE,22,1.0,2.0,74,0.00,,,-99.99,Weather View 32 v60,2013-11-22 11:20:00,
2013-11-22 05:25:00,12.0,5.3,30.59,NNE,22,0.0,1.0,74,0.00,,,-99.99,Weather View 32 v60,2013-11-22 11:25:00,
2013-11-22 05:30:00,15.0,7.9,30.58,NNE,22,0.0,3.0,73,0.00,,,-99.99,Weather View 32 v60,2013-11-22 11:30:00,
2013-11-22 05:35:00,11.0,4.6,30.59,NNE,22,0.0,1.0,75,0.00,,,-99.99,Weather View 32 v60,2013-11-22 11:35:00,
2013-11-22 05:45:00,11.0,4.6,30.59,NNE,22,0.0,1.0,75,0.00,,,-99.99,Weather View 32 v60,2013-11-22 11:45:00,
2013-11-22 05:50:00,11.0,4.6,30.59,NNE,22,0.0,1.0,75,0.00,,,-99.99,Weather View 32 v60,2013-11-22 11:50:00,
2013-11-22 05:55:00,14.0,6.9,30.59,NNE,22,0.0,2.0,73,0.00,,,-99.99,Weather View 32 v60,2013-11-22 11:55:00,
2013-11-22 06:00:00,14.0,6.9,30.59,NNE,22,0.0,2.0,73,0.00,,,-99.99,Weather View 32 v60,2013-11-22 12:00:00,
2013-11-22 06:05:00,10.0,4.0,30.60,NNE,22,0.0,1.0,76,0.00,,,-99.99,Weather View 32 v60,2013-11-22 12:05:00,
2013-11-22 06:10:00,10.0,4.0,30.60,NNE,22,0.0,1.0,76,0.00,,,-99.99,Weather View 32 v60,2013-11-22 12:10:00,
2013-11-22 06:20:00,10.0,4.0,30.60,NNE,22,0.0,1.0,76,0.00,,,-99.99,Weather View 32 v60,2013-11-22 12:20:00,
2013-11-22 06:25:00,10.0,4.2,30.60,NNE,22,0.0,1.0,77,0.00,,,-99.99,Weather View 32 v60,2013-11-22 12:25:00,
2013-11-22 06:30:00,12.0,5.3,30.59,NNE,22,0.0,1.0,74,0.00,,,-99.99,Weather View 32 v60,2013-11-22 12:30:00,
2013-11-22 06:40:00,11.0,4.6,30.59,NNE,22,0.0,1.0,75,0.00,,,-99.99,Weather View 32 v60,2013-11-22 12:40:00,
2013-11-22 06:55:00,11.0,4.9,30.59,NNE,22,0.0,1.0,76,0.00,,,-99.99,Weather View 32 v60,2013-11-22 12:55:00,
2013-11-22 07:00:00,10.0,4.0,30.59,NNE,22,0.0,1.0,76,0.00,,,-99.99,Weather View 32 v60,2013-11-22 13:00:00,
2013-11-22 07:05:00,10.0,4.5,30.58,NNE,22,1.0,3.0,78,0.00,,,-99.99,Weather View 32 v60,2013-11-22 13:05:00,
2013-11-22 07:15:00,10.0,4.0,30.60,NNE,22,0.0,1.0,76,0.00,,,-99.99,Weather View 32 v60,2013-11-22 13:15:00,
2013-11-22 07:25:00,12.0,6.7,30.58,NNE,22,3.0,5.0,79,0.00,,,-99.99,Weather View 32 v60,2013-11-22 13:25:00,
2013-11-22 07:30:00,10.0,4.2,30.60,NNE,22,0.0,1.0,77,0.00,,,-99.99,Weather View 32 v60,2013-11-22 13:30:00,
2013-11-22 07:35:00,9.0,3.3,30.60,NNE,22,0.0,1.0,77,0.00,,,-99.99,Weather View 32 v60,2013-11-22 13:35:00,
2013-11-22 07:40:00,9.0,3.3,30.59,NNE,22,0.0,2.0,77,0.00,,,-99.99,Weather View 32 v60,2013-11-22 13:40:00,
2013-11-22 07:50:00,10.0,4.2,30.58,NNE,22,0.0,2.0,77,0.00,,,-99.99,Weather View 32 v60,2013-11-22 13:50:00,
2013-11-22 07:55:00,10.0,4.2,30.58,NNE,22,1.0,2.0,77,0.00,,,-99.99,Weather View 32 v60,2013-11-22 13:55:00,
2013-11-22 08:00:00,10.0,4.5,30.58,NNE,22,0.0,2.0,78,0.00,,,-99.99,Weather View 32 v60,2013-11-22 14:00:00,
2013-11-22 08:05:00,14.0,9.0,30.58,NNE,22,2.0,6.0,80,0.00,,,-99.99,Weather View 32 v60,2013-11-22 14:05:00,
2013-11-22 08:10:00,10.0,4.5,30.58,NNE,22,1.0,5.0,78,0.00,,,-99.99,Weather View 32 v60,2013-11-22 14:10:00,
2013-11-22 08:15:00,11.0,5.5,30.58,NNE,22,1.0,5.0,78,0.00,,,-99.99,Weather View 32 v60,2013-11-22 14:15:00,
2013-11-22 08:20:00,11.0,5.8,30.58,NNE,22,2.0,5.0,79,0.00,,,-99.99,Weather View 32 v60,2013-11-22 14:20:00,
2013-11-22 08:25:00,16.0,10.9,30.57,NNE,22,3.0,6.0,80,0.00,,,-99.99,Weather View 32 v60,2013-11-22 14:25:00,
2013-11-22 08:35:00,13.0,7.7,30.59,NNE,22,2.0,5.0,79,0.00,,,-99.99,Weather View 32 v60,2013-11-22 14:35:00,
2013-11-22 08:45:00,13.0,8.0,30.58,NNE,22,3.0,6.0,80,0.00,,,-99.99,Weather View 32 v60,2013-11-22 14:45:00,
2013-11-22 08:50:00,13.0,8.0,30.58,NNE,22,2.0,6.0,80,0.00,,,-99.99,Weather View 32 v60,2013-11-22 14:50:00,
2013-11-22 08:55:00,14.0,9.0,30.58,NNE,22,4.0,6.0,80,0.00,,,-99.99,Weather View 32 v60,2013-11-22 14:55:00,
2013-11-22 09:00:00,14.0,9.0,30.58,NNE,22,3.0,6.0,80,0.00,,,-99.99,Weather View 32 v60,2013-11-22 15:00:00,
2013-11-22 09:05:00,19.0,13.6,30.55,NNE,22,3.0,9.0,79,0.00,,,-99.99,Weather View 32 v60,2013-11-22 15:05:00,
2013-11-22 09:10:00,15.0,10.0,30.58,NNE,22,5.0,6.0,80,0.00,,,-99.99,Weather View 32 v60,2013-11-22 15:10:00,
2013-11-22 09:15:00,15.0,10.0,30.58,NNE,22,3.0,6.0,80,0.00,,,-99.99,Weather View 32 v60,2013-11-22 15:15:00,
2013-11-22 09:20:00,15.0,10.0,30.57,NNE,22,3.0,6.0,80,0.00,,,-99.99,Weather View 32 v60,2013-11-22 15:20:00,
2013-11-22 09:30:00,16.0,10.9,30.57,NNE,22,2.0,6.0,80,0.00,,,-99.99,Weather View 32 v60,2013-11-22 15:30:00,
2013-11-22 09:40:00,17.0,11.9,30.57,NNE,22,3.0,8.0,80,0.00,,,-99.99,Weather View 32 v60,2013-11-22 15:40:00,
2013-11-22 09:55:00,18.0,12.9,30.57,NNE,22,3.0,9.0,80,0.00,,,-99.99,Weather View 32 v60,2013-11-22 15:55:00,
2013-11-22 10:00:00,23.0,13.7,30.52,WSW,248,5.0,12.0,67,0.00,,,-99.99,Weather View 32 v60,2013-11-22 16:00:00,
2013-11-22 10:15:00,19.0,13.3,30.55,NNE,22,7.0,10.0,78,0.00,,,-99.99,Weather View 32 v60,2013-11-22 16:15:00,
2013-11-22 10:25:00,20.0,14.0,30.54,WNW,292,3.0,12.0,77,0.00,,,-99.99,Weather View 32 v60,2013-11-22 16:25:00,
2013-11-22 10:35:00,21.0,13.7,30.54,West,270,5.0,12.0,73,0.00,,,-99.99,Weather View 32 v60,2013-11-22 16:35:00,
2013-11-22 10:45:00,22.0,13.7,30.53,WNW,292,4.0,12.0,70,0.00,,,-99.99,Weather View 32 v60,2013-11-22 16:45:00,
2013-11-22 10:50:00,22.0,13.4,30.53,WNW,292,5.0,12.0,69,0.00,,,-99.99,Weather View 32 v60,2013-11-22 16:50:00,
2013-11-22 10:55:00,23.0,13.7,30.52,SW,225,5.0,12.0,67,0.00,,,-99.99,Weather View 32 v60,2013-11-22 16:55:00,
2013-11-22 11:05:00,24.0,13.9,30.51,WNW,292,5.0,12.0,65,0.00,,,-99.99,Weather View 32 v60,2013-11-22 17:05:00,
2013-11-22 11:10:00,24.0,13.2,30.51,NW,315,8.0,12.0,63,0.00,,,-99.99,Weather View 32 v60,2013-11-22 17:10:00,
2013-11-22 11:15:00,28.0,10.4,30.48,West,270,5.0,16.0,47,0.00,,,-99.99,Weather View 32 v60,2013-11-22 17:15:00,
2013-11-22 11:20:00,25.0,13.1,30.50,WSW,248,3.0,12.0,60,0.00,,,-99.99,Weather View 32 v60,2013-11-22 17:20:00,
2013-11-22 11:25:00,25.0,12.7,30.50,West,270,5.0,11.0,59,0.00,,,-99.99,Weather View 32 v60,2013-11-22 17:25:00,
2013-11-22 11:30:00,26.0,12.8,30.50,SW,225,3.0,14.0,57,0.00,,,-99.99,Weather View 32 v60,2013-11-22 17:30:00,
2013-11-22 11:40:00,26.0,11.6,30.49,NW,315,3.0,14.0,54,0.00,,,-99.99,Weather View 32 v60,2013-11-22 17:40:00,
2013-11-22 11:45:00,27.0,12.1,30.49,West,270,5.0,14.0,53,0.00,,,-99.99,Weather View 32 v60,2013-11-22 17:45:00,
2013-11-22 11:50:00,27.0,11.7,30.49,WNW,292,6.0,14.0,52,0.00,,,-99.99,Weather View 32 v60,2013-11-22 17:50:00,
2013-11-22 12:00:00,27.0,10.4,30.48,West,270,6.0,14.0,49,0.00,,,-99.99,Weather View 32 v60,2013-11-22 18:00:00,
2013-11-22 12:05:00,28.0,10.8,30.48,WNW,292,7.0,14.0,48,0.00,,,-99.99,Weather View 32 v60,2013-11-22 18:05:00,
2013-11-22 12:10:00,28.0,10.8,30.48,WNW,292,6.0,14.0,48,0.00,,,-99.99,Weather View 32 v60,2013-11-22 18:10:00,
2013-11-22 12:20:00,28.0,9.9,30.47,NNW,338,8.0,16.0,46,0.00,,,-99.99,Weather View 32 v60,2013-11-22 18:20:00,
2013-11-22 12:25:00,28.0,9.4,30.47,West,270,3.0,16.0,45,0.00,,,-99.99,Weather View 32 v60,2013-11-22 18:25:00,
2013-11-22 12:30:00,28.0,9.4,30.47,West,270,8.0,16.0,45,0.00,,,-99.99,Weather View 32 v60,2013-11-22 18:30:00,
2013-11-22 12:40:00,29.0,9.8,30.47,NW,315,4.0,16.0,44,0.00,,,-99.99,Weather View 32 v60,2013-11-22 18:40:00,
2013-11-22 12:45:00,29.0,9.3,30.47,SW,225,1.0,16.0,43,0.00,,,-99.99,Weather View 32 v60,2013-11-22 18:45:00,
2013-11-22 12:50:00,29.0,8.2,30.46,WNW,292,7.0,16.0,41,0.00,,,-99.99,Weather View 32 v60,2013-11-22 18:50:00,
2013-11-22 12:55:00,29.0,8.2,30.46,WNW,292,9.0,16.0,41,0.00,,,-99.99,Weather View 32 v60,2013-11-22 18:55:00,
2013-11-22 13:00:00,29.0,7.7,30.46,NW,315,5.0,16.0,40,0.00,,,-99.99,Weather View 32 v60,2013-11-22 19:00:00,
2013-11-22 13:10:00,30.0,7.4,30.46,SW,225,2.0,16.0,38,0.00,,,-99.99,Weather View 32 v60,2013-11-22 19:10:00,
2013-11-22 13:15:00,30.0,6.9,30.46,West,270,9.0,15.0,37,0.00,,,-99.99,Weather View 32 v60,2013-11-22 19:15:00,
2013-11-22 13:20:00,30.0,6.9,30.45,West,270,5.0,16.0,37,0.00,,,-99.99,Weather View 32 v60,2013-11-22 19:20:00,
2013-11-22 13:25:00,30.0,6.3,30.45,SW,225,8.0,17.0,36,0.00,,,-99.99,Weather View 32 v60,2013-11-22 19:25:00,
2013-11-22 13:35:00,31.0,5.9,30.45,NNE,22,5.0,17.0,34,0.00,,,-99.99,Weather View 32 v60,2013-11-22 19:35:00,
2013-11-22 13:45:00,31.0,5.9,30.45,WSW,248,8.0,17.0,34,0.00,,,-99.99,Weather View 32 v60,2013-11-22 19:45:00,
2013-11-22 13:55:00,31.0,5.2,30.44,West,270,8.0,17.0,33,0.00,,,-99.99,Weather View 32 v60,2013-11-22 19:55:00,
2013-11-22 14:00:00,31.0,5.2,30.44,WNW,292,6.0,17.0,33,0.00,,,-99.99,Weather View 32 v60,2013-11-22 20:00:00,
2013-11-22 14:05:00,31.0,4.6,30.44,NW,315,10.0,19.0,32,0.00,,,-99.99,Weather View 32 v60,2013-11-22 20:05:00,
2013-11-22 14:10:00,31.0,3.9,30.44,NW,315,11.0,19.0,31,0.00,,,-99.99,Weather View 32 v60,2013-11-22 20:10:00,
2013-11-22 14:20:00,31.0,3.9,30.44,NNW,338,5.0,19.0,31,0.00,,,-99.99,Weather View 32 v60,2013-11-22 20:20:00,
2013-11-22 14:25:00,31.0,3.9,30.44,WNW,292,14.0,21.0,31,0.00,,,-99.99,Weather View 32 v60,2013-11-22 20:25:00,
2013-11-22 14:30:00,31.0,3.9,30.44,WNW,292,18.0,23.0,31,0.00,,,-99.99,Weather View 32 v60,2013-11-22 20:30:00,
2013-11-22 14:35:00,31.0,3.9,30.43,WNW,292,6.0,24.0,31,0.00,,,-99.99,Weather View 32 v60,2013-11-22 20:35:00,
2013-11-22 14:40:00,31.0,3.9,30.43,NNW,338,11.0,24.0,31,0.00,,,-99.99,Weather View 32 v60,2013-11-22 20:40:00,
2013-11-22 14:50:00,31.0,3.9,30.44,NW,315,12.0,24.0,31,0.00,,,-99.99,Weather View 32 v60,2013-11-22 20:50:00,
2013-11-22 14:55:00,31.0,4.6,30.43,WNW,292,11.0,24.0,32,0.00,,,-99.99,Weather View 32 v60,2013-11-22 20:55:00,
2013-11-22 15:00:00,31.0,4.6,30.43,NNW,338,6.0,24.0,32,0.00,,,-99.99,Weather View 32 v60,2013-11-22 21:00:00,
2013-11-22 15:15:00,31.0,5.2,30.44,North,0,8.0,24.0,33,0.00,,,-99.99,Weather View 32 v60,2013-11-22 21:15:00,
2013-11-22 15:23:00,31.0,5.2,30.44,NNW,338,13.0,24.0,33,0.00,,,-99.99,Weather View 32 v60,2013-11-22 21:23:00,
2013-11-22 15:30:00,31.0,5.9,30.44,West,270,6.0,24.0,34,0.00,,,-99.99,Weather View 32 v60,2013-11-22 21:30:00,
2013-11-22 15:35:00,30.0,5.6,30.44,WNW,292,6.0,22.0,35,0.00,,,-99.99,Weather View 32 v60,2013-11-22 21:35:00,
2013-11-22 15:40:00,30.0,5.6,30.45,NW,315,8.0,22.0,35,0.00,,,-99.99,Weather View 32 v60,2013-11-22 21:40:00,
2013-11-22 15:45:00,30.0,6.3,30.45,WNW,292,11.0,22.0,36,0.00,,,-99.99,Weather View 32 v60,2013-11-22 21:45:00,
2013-11-22 15:50:00,29.0,5.4,30.45,NW,315,4.0,21.0,36,0.00,,,-99.99,Weather View 32 v60,2013-11-22 21:50:00,
2013-11-22 15:55:00,29.0,6.0,30.45,WNW,292,7.0,21.0,37,0.00,,,-99.99,Weather View 32 v60,2013-11-22 21:55:00,
2013-11-22 16:00:00,29.0,6.0,30.45,WSW,248,10.0,21.0,37,0.00,,,-99.99,Weather View 32 v60,2013-11-22 22:00:00,
2013-11-22 16:05:00,29.0,6.6,30.45,NNW,338,8.0,21.0,38,0.00,,,-99.99,Weather View 32 v60,2013-11-22 22:05:00,
2013-11-22 16:10:00,28.0,5.7,30.45,NNW,338,6.0,21.0,38,0.00,,,-99.99,Weather View 32 v60,2013-11-22 22:10:00,
2013-11-22 16:20:00,28.0,6.2,30.46,NW,315,11.0,21.0,39,0.00,,,-99.99,Weather View 32 v60,2013-11-22 22:20:00,
2013-11-22 16:25:00,28.0,6.8,30.47,North,0,8.0,21.0,40,0.00,,,-99.99,Weather View 32 v60,2013-11-22 22:25:00,
2013-11-22 16:30:00,27.0,6.4,30.47,North,0,10.0,21.0,41,0.00,,,-99.99,Weather View 32 v60,2013-11-22 22:30:00,
2013-11-22 16:40:00,27.0,7.5,30.48,NNW,338,11.0,21.0,43,0.00,,,-99.99,Weather View 32 v60,2013-11-22 22:40:00,
2013-11-22 16:45:00,26.0,7.1,30.48,North,0,8.0,21.0,44,0.00,,,-99.99,Weather View 32 v60,2013-11-22 22:45:00,
2013-11-22 16:50:00,26.0,7.1,30.48,North,0,9.0,21.0,44,0.00,,,-99.99,Weather View 32 v60,2013-11-22 22:50:00,
2013-11-22 17:00:00,26.0,8.0,30.48,North,0,8.0,21.0,46,0.00,,,-99.99,Weather View 32 v60,2013-11-22 23:00:00,
2013-11-22 17:05:00,26.0,8.5,30.48,NNW,338,10.0,21.0,47,0.00,,,-99.99,Weather View 32 v60,2013-11-22 23:05:00,
2013-11-22 17:10:00,26.0,9.0,30.48,NNW,338,5.0,21.0,48,0.00,,,-99.99,Weather View 32 v60,2013-11-22 23:10:00,
2013-11-22 17:15:00,25.0,8.5,30.48,North,0,9.0,21.0,49,0.00,,,-99.99,Weather View 32 v60,2013-11-22 23:15:00,
2013-11-22 17:20:00,25.0,8.5,30.49,NNE,22,6.0,21.0,49,0.00,,,-99.99,Weather View 32 v60,2013-11-22 23:20:00,
2013-11-22 17:25:00,25.0,9.0,30.49,NNE,22,3.0,18.0,50,0.00,,,-99.99,Weather View 32 v60,2013-11-22 23:25:00,
2013-11-22 17:35:00,25.0,10.3,30.49,NW,315,6.0,19.0,53,0.00,,,-99.99,Weather View 32 v60,2013-11-22 23:35:00,
2013-11-22 17:40:00,24.0,10.2,30.50,North,0,10.0,19.0,55,0.00,,,-99.99,Weather View 32 v60,2013-11-22 23:40:00,
2013-11-22 17:45:00,24.0,10.6,30.50,NNW,338,8.0,19.0,56,0.00,,,-99.99,Weather View 32 v60,2013-11-22 23:45:00,
2013-11-22 17:50:00,24.0,11.0,30.50,NNW,338,7.0,19.0,57,0.00,,,-99.99,Weather View 32 v60,2013-11-22 23:50:00,
2013-11-22 17:55:00,24.0,11.4,30.50,NNE,22,4.0,19.0,58,0.00,,,-99.99,Weather View 32 v60,2013-11-22 23:55:00,
2013-11-22 18:05:00,23.0,11.2,30.50,North,0,5.0,19.0,60,0.00,,,-99.99,Weather View 32 v60,2013-11-23 00:05:00,
2013-11-22 18:10:00,23.0,11.9,30.50,North,0,5.0,19.0,62,0.00,,,-99.99,Weather View 32 v60,2013-11-23 00:10:00,
2013-11-22 18:15:00,23.0,12.6,30.50,North,0,7.0,19.0,64,0.00,,,-99.99,Weather View 32 v60,2013-11-23 00:15:00,
2013-11-22 18:20:00,23.0,13.0,30.51,NNE,22,11.0,19.0,65,0.00,,,-99.99,Weather View 32 v60,2013-11-23 00:20:00,
2013-11-22 18:25:00,23.0,13.3,30.51,North,0,11.0,19.0,66,0.00,,,-99.99,Weather View 32 v60,2013-11-23 00:25:00,
2013-11-22 18:35:00,22.0,13.1,30.51,NW,315,6.0,17.0,68,0.00,,,-99.99,Weather View 32 v60,2013-11-23 00:35:00,
2013-11-22 18:40:00,22.0,13.4,30.51,North,0,6.0,17.0,69,0.00,,,-99.99,Weather View 32 v60,2013-11-23 00:40:00,
2013-11-22 18:45:00,22.0,13.4,30.51,NNW,338,6.0,17.0,69,0.00,,,-99.99,Weather View 32 v60,2013-11-23 00:45:00,
2013-11-22 18:50:00,22.0,13.7,30.51,NNW,338,10.0,17.0,70,0.00,,,-99.99,Weather View 32 v60,2013-11-23 00:50:00,
2013-11-22 18:55:00,21.0,13.1,30.52,NW,315,6.0,17.0,71,0.00,,,-99.99,Weather View 32 v60,2013-11-23 00:55:00,
2013-11-22 19:00:00,21.0,13.1,30.52,NNW,338,10.0,17.0,71,0.00,,,-99.99,Weather View 32 v60,2013-11-23 01:00:00,
2013-11-22 19:10:00,21.0,12.4,30.53,NNW,338,6.0,19.0,69,0.00,,,-99.99,Weather View 32 v60,2013-11-23 01:10:00,
2013-11-22 19:15:00,21.0,12.1,30.53,North,0,7.0,19.0,68,0.00,,,-99.99,Weather View 32 v60,2013-11-23 01:15:00,
2013-11-22 19:20:00,21.0,11.8,30.53,North,0,8.0,19.0,67,0.00,,,-99.99,Weather View 32 v60,2013-11-23 01:20:00,
2013-11-22 19:25:00,21.0,11.4,30.54,NNW,338,11.0,19.0,66,0.00,,,-99.99,Weather View 32 v60,2013-11-23 01:25:00,
2013-11-22 19:30:00,20.0,10.1,30.54,North,0,9.0,19.0,65,0.00,,,-99.99,Weather View 32 v60,2013-11-23 01:30:00,
2013-11-22 19:35:00,20.0,9.8,30.54,North,0,6.0,19.0,64,0.00,,,-99.99,Weather View 32 v60,2013-11-23 01:35:00,
2013-11-22 19:45:00,20.0,9.1,30.55,NNE,22,9.0,19.0,62,0.00,,,-99.99,Weather View 32 v60,2013-11-23 01:45:00,
2013-11-22 19:50:00,20.0,9.1,30.55,NNE,22,6.0,19.0,62,0.00,,,-99.99,Weather View 32 v60,2013-11-23 01:50:00,
2013-11-22 19:55:00,19.0,7.8,30.55,NNW,338,5.0,19.0,61,0.00,,,-99.99,Weather View 32 v60,2013-11-23 01:55:00,
2013-11-22 20:05:00,19.0,7.8,30.55,NE,45,8.0,19.0,61,0.00,,,-99.99,Weather View 32 v60,2013-11-23 02:05:00,
2013-11-22 20:10:00,19.0,7.8,30.55,NNE,22,6.0,19.0,61,0.00,,,-99.99,Weather View 32 v60,2013-11-23 02:10:00,
2013-11-22 20:15:00,19.0,7.8,30.55,NNE,22,6.0,19.0,61,0.00,,,-99.99,Weather View 32 v60,2013-11-23 02:15:00,
2013-11-22 20:20:00,19.0,7.4,30.56,NNE,22,10.0,19.0,60,0.00,,,-99.99,Weather View 32 v60,2013-11-23 02:20:00,
2013-11-22 20:25:00,18.0,6.5,30.56,North,0,11.0,19.0,60,0.00,,,-99.99,Weather View 32 v60,2013-11-23 02:25:00,
2013-11-22 20:30:00,18.0,6.5,30.56,North,0,5.0,19.0,60,0.00,,,-99.99,Weather View 32 v60,2013-11-23 02:30:00,
2013-11-22 20:35:00,18.0,6.5,30.56,North,0,8.0,18.0,60,0.00,,,-99.99,Weather View 32 v60,2013-11-23 02:35:00,
2013-11-22 20:45:00,18.0,6.1,30.57,North,0,7.0,16.0,59,0.00,,,-99.99,Weather View 32 v60,2013-11-23 02:45:00,
2013-11-22 20:50:00,18.0,6.1,30.57,North,0,11.0,16.0,59,0.00,,,-99.99,Weather View 32 v60,2013-11-23 02:50:00,
2013-11-22 21:00:00,17.0,5.5,30.58,NE,45,6.0,18.0,60,0.00,,,-99.99,Weather View 32 v60,2013-11-23 03:00:00,
2013-11-22 21:05:00,17.0,5.5,30.58,North,0,13.0,22.0,60,0.00,,,-99.99,Weather View 32 v60,2013-11-23 03:05:00,
2013-11-22 21:10:00,17.0,5.1,30.59,North,0,10.0,22.0,59,0.00,,,-99.99,Weather View 32 v60,2013-11-23 03:10:00,
2013-11-22 21:15:00,16.0,3.8,30.59,NNE,22,11.0,22.0,58,0.00,,,-99.99,Weather View 32 v60,2013-11-23 03:15:00,
2013-11-22 21:20:00,16.0,3.8,30.60,North,0,8.0,22.0,58,0.00,,,-99.99,Weather View 32 v60,2013-11-23 03:20:00,
2013-11-22 21:27:00,15.0,2.9,30.60,North,0,6.0,22.0,58,0.00,,,-99.99,Weather View 32 v60,2013-11-23 03:27:00,
2013-11-22 21:35:00,15.0,2.9,30.60,NE,45,10.0,22.0,58,0.00,,,-99.99,Weather View 32 v60,2013-11-23 03:35:00,
2013-11-22 21:40:00,14.0,1.9,30.60,North,0,5.0,22.0,58,0.00,,,-99.99,Weather View 32 v60,2013-11-23 03:40:00,
2013-11-22 21:45:00,14.0,1.9,30.61,NNW,338,6.0,22.0,58,0.00,,,-99.99,Weather View 32 v60,2013-11-23 03:45:00,
2013-11-22 21:55:00,14.0,2.3,30.61,North,0,6.0,22.0,59,0.00,,,-99.99,Weather View 32 v60,2013-11-23 03:55:00,
2013-11-22 22:00:00,13.0,1.7,30.62,North,0,9.0,22.0,60,0.00,,,-99.99,Weather View 32 v60,2013-11-23 04:00:00,
2013-11-22 22:05:00,13.0,1.7,30.62,North,0,8.0,19.0,60,0.00,,,-99.99,Weather View 32 v60,2013-11-23 04:05:00,
2013-11-22 22:10:00,13.0,1.4,30.62,North,0,5.0,20.0,59,0.00,,,-99.99,Weather View 32 v60,2013-11-23 04:10:00,
2013-11-22 22:15:00,13.0,1.0,30.63,NNE,22,6.0,20.0,58,0.00,,,-99.99,Weather View 32 v60,2013-11-23 04:15:00,
2013-11-22 22:20:00,12.0,0.1,30.63,NNE,22,8.0,20.0,58,0.00,,,-99.99,Weather View 32 v60,2013-11-23 04:20:00,
2013-11-22 22:25:00,10.0,-1.5,30.66,NNE,22,10.0,18.0,59,0.00,,,-99.99,Weather View 32 v60,2013-11-23 04:25:00,
2013-11-22 22:27:00,12.0,0.1,30.63,NNW,338,6.0,20.0,58,0.00,,,-99.99,Weather View 32 v60,2013-11-23 04:27:00,
2013-11-22 22:30:00,10.0,-1.5,30.66,NNE,22,4.0,17.0,59,0.00,,,-99.99,Weather View 32 v60,2013-11-23 04:30:00,
2013-11-22 22:35:00,12.0,0.1,30.64,North,0,5.0,20.0,58,0.00,,,-99.99,Weather View 32 v60,2013-11-23 04:35:00,
2013-11-22 22:40:00,11.0,-0.9,30.64,NNE,22,10.0,20.0,58,0.00,,,-99.99,Weather View 32 v60,2013-11-23 04:40:00,
2013-11-22 22:45:00,11.0,-0.9,30.65,North,0,8.0,20.0,58,0.00,,,-99.99,Weather View 32 v60,2013-11-23 04:45:00,
2013-11-22 22:50:00,11.0,-0.9,30.65,North,0,5.0,20.0,58,0.00,,,-99.99,Weather View 32 v60,2013-11-23 04:50:00,
2013-11-22 22:55:00,11.0,-0.9,30.65,North,0,5.0,20.0,58,0.00,,,-99.99,Weather View 32 v60,2013-11-23 04:55:00,
2013-11-22 23:00:00,11.0,-0.9,30.65,NW,315,8.0,20.0,58,0.00,,,-99.99,Weather View 32 v60,2013-11-23 05:00:00,
2013-11-22 23:05:00,9.0,-1.7,30.67,North,0,3.0,17.0,61,0.00,,,-99.99,Weather View 32 v60,2013-11-23 05:05:00,
2013-11-22 23:10:00,9.0,-1.7,30.67,North,0,6.0,17.0,61,0.00,,,-99.99,Weather View 32 v60,2013-11-23 05:10:00,
2013-11-22 23:15:00,9.0,-1.4,30.67,North,0,9.0,17.0,62,0.00,,,-99.99,Weather View 32 v60,2013-11-23 05:15:00,
2013-11-22 23:20:00,9.0,-1.4,30.67,NNW,338,11.0,17.0,62,0.00,,,-99.99,Weather View 32 v60,2013-11-23 05:20:00,
2013-11-22 23:25:00,9.0,-1.4,30.68,NNE,22,10.0,17.0,62,0.00,,,-99.99,Weather View 32 v60,2013-11-23 05:25:00,
2013-11-22 23:30:00,9.0,-1.0,30.68,NE,45,8.0,17.0,63,0.00,,,-99.99,Weather View 32 v60,2013-11-23 05:30:00,
2013-11-22 23:35:00,9.0,-1.0,30.68,North,0,5.0,17.0,63,0.00,,,-99.99,Weather View 32 v60,2013-11-23 05:35:00,
2013-11-22 23:40:00,9.0,-1.0,30.68,NNW,338,8.0,17.0,63,0.00,,,-99.99,Weather View 32 v60,2013-11-23 05:40:00,
2013-11-22 23:45:00,9.0,-1.0,30.68,NNE,22,6.0,17.0,63,0.00,,,-99.99,Weather View 32 v60,2013-11-23 05:45:00,
2013-11-22 23:50:00,9.0,-0.7,30.68,NNW,338,5.0,17.0,64,0.00,,,-99.99,Weather View 32 v60,2013-11-23 05:50:00,
2013-11-22 23:55:00,9.0,-0.7,30.69,North,0,3.0,17.0,64,0.00,,,-99.99,Weather View 32 v60,2013-11-23 05:55:00,